createdAt,value
2023-04-27T00:01:25.101Z,5.33
2023-04-27T00:06:29.102Z,4.87
2023-04-27T00:11:31.781Z,4.60
2023-04-27T00:16:34.479Z,4.90
2023-04-27T00:21:38.541Z,4.67
2023-04-27T00:26:41.565Z,4.80
2023-04-27T00:31:44.298Z,5.23
2023-04-27T00:36:48.290Z,4.90
2023-04-27T00:41:51.081Z,4.70
2023-04-27T00:46:54.508Z,5.00
2023-04-27T00:51:58.614Z,4.90
2023-04-27T00:57:02.264Z,4.93
2023-04-27T01:02:05.090Z,5.30
2023-04-27T01:07:09.160Z,4.50
2023-04-27T01:12:11.802Z,5.23
2023-04-27T01:17:15.003Z,5.13
2023-04-27T01:22:19.044Z,4.97
2023-04-27T01:27:23.052Z,4.83
2023-04-27T01:32:25.965Z,4.63
2023-04-27T01:37:28.640Z,5.50
2023-04-27T01:42:32.648Z,4.97
2023-04-27T01:47:35.348Z,5.03
2023-04-27T01:52:38.016Z,4.93
2023-04-27T01:57:41.959Z,5.30
2023-04-27T02:02:45.382Z,4.50
2023-04-27T02:07:48.148Z,5.30
2023-04-27T02:12:52.153Z,4.63
2023-04-27T02:17:55.007Z,4.87
2023-04-27T02:22:57.871Z,4.97
2023-04-27T02:28:01.833Z,4.50
2023-04-27T02:33:05.084Z,5.10
2023-04-27T02:38:07.870Z,4.67
2023-04-27T02:43:11.952Z,4.53
2023-04-27T02:48:14.843Z,4.90
2023-04-27T02:53:17.509Z,4.20
2023-04-27T02:58:22.594Z,5.00
2023-04-27T03:03:25.732Z,4.77
2023-04-27T03:08:28.576Z,4.50
2023-04-27T03:13:38.492Z,4.37
2023-04-27T03:18:41.522Z,4.73
2023-04-27T03:23:44.321Z,5.00
2023-04-27T03:28:48.643Z,4.87
2023-04-27T03:33:51.380Z,5.00
2023-04-27T03:38:54.287Z,5.10
2023-04-27T03:43:58.309Z,5.00
2023-04-27T03:49:00.970Z,4.77
2023-04-27T03:54:03.695Z,4.60
2023-04-27T03:59:07.690Z,4.47
2023-04-27T04:04:10.496Z,4.73
2023-04-27T04:09:13.701Z,4.60
2023-04-27T04:14:17.867Z,4.53
2023-04-27T04:19:21.946Z,4.47
2023-04-27T04:24:25.055Z,6.07
2023-04-27T04:29:29.091Z,9.10
2023-04-27T04:34:32.033Z,6.60
2023-04-27T04:39:34.883Z,5.77
2023-04-27T04:44:38.915Z,6.63
2023-04-27T04:49:41.612Z,6.27
2023-04-27T04:54:44.306Z,5.10
2023-04-27T04:59:48.376Z,6.17
2023-04-27T05:04:52.210Z,4.80
2023-04-27T05:09:55.295Z,5.07
2023-04-27T05:14:59.447Z,5.07
2023-04-27T05:20:02.079Z,4.57
2023-04-27T05:25:05.271Z,4.43
2023-04-27T05:30:11.100Z,3.77
2023-04-27T05:35:13.901Z,4.13
2023-04-27T05:40:16.787Z,4.30
2023-04-27T05:45:20.981Z,4.40
2023-04-27T05:50:23.868Z,4.33
2023-04-27T05:55:26.607Z,4.80
2023-04-27T06:00:30.734Z,4.43
2023-04-27T06:05:34.351Z,4.23
2023-04-27T06:10:37.330Z,4.23
2023-04-27T06:15:41.322Z,3.97
2023-04-27T06:20:44.091Z,4.20
2023-04-27T06:25:46.753Z,4.33
2023-04-27T06:30:50.795Z,4.23
2023-04-27T06:35:53.466Z,3.90
2023-04-27T06:40:56.335Z,3.57
2023-04-27T06:46:00.588Z,4.17
2023-04-27T06:51:03.301Z,3.83
2023-04-27T06:56:07.101Z,3.70
2023-04-27T07:01:11.215Z,4.00
2023-04-27T07:06:13.912Z,3.33
2023-04-27T07:11:16.606Z,3.87
2023-04-27T07:16:20.915Z,3.50
2023-04-27T07:21:23.647Z,3.60
2023-04-27T07:26:26.991Z,3.63
2023-04-27T07:31:31.738Z,3.87
2023-04-27T07:36:34.573Z,4.17
2023-04-27T07:41:37.312Z,4.03
2023-04-27T07:46:41.356Z,4.30
2023-04-27T07:51:44.044Z,3.87
2023-04-27T07:56:46.890Z,4.03
2023-04-27T08:01:51.104Z,3.80
2023-04-27T08:06:54.310Z,3.63
2023-04-27T08:11:58.783Z,3.70
2023-04-27T08:17:03.067Z,3.67
2023-04-27T08:22:05.866Z,3.90
2023-04-27T08:27:09.346Z,4.20
2023-04-27T08:32:13.324Z,4.18
2023-04-27T08:37:16.007Z,4.30
2023-04-27T08:42:18.736Z,4.10
2023-04-27T08:47:31.379Z,3.92
2023-04-27T08:52:45.408Z,4.40
2023-04-27T08:57:58.368Z,3.90
2023-04-27T09:03:04.245Z,3.97
2023-04-27T09:08:09.082Z,4.30
2023-04-27T09:13:11.772Z,4.40
2023-04-27T09:18:19.166Z,4.43
2023-04-27T09:23:27.853Z,4.80
2023-04-27T09:28:32.675Z,4.15
2023-04-27T09:33:37.255Z,3.38
2023-04-27T09:38:40.819Z,3.33
2023-04-27T09:43:45.687Z,3.70
2023-04-27T09:48:51.499Z,3.58
2023-04-27T09:53:58.386Z,3.72
2023-04-27T09:59:16.776Z,3.70
2023-04-27T10:04:40.001Z,3.70
2023-04-27T10:09:44.664Z,3.83
2023-04-27T10:14:54.523Z,4.10
2023-04-27T10:20:00.400Z,3.90
2023-04-27T10:25:15.365Z,3.92
2023-04-27T10:30:20.462Z,3.88
2023-04-27T10:35:33.950Z,4.50
2023-04-27T10:40:37.503Z,4.25
2023-04-27T10:45:41.001Z,4.22
2023-04-27T10:50:46.718Z,4.13
2023-04-27T10:55:55.508Z,3.90
2023-04-27T11:00:58.180Z,4.13
2023-04-27T11:06:04.281Z,4.05
2023-04-27T11:11:07.020Z,4.10
2023-04-27T11:16:09.776Z,3.80
2023-04-27T11:21:15.913Z,4.30
2023-04-27T11:26:22.388Z,3.90
2023-04-27T11:31:25.382Z,3.80
2023-04-27T11:36:29.503Z,3.60
2023-04-27T11:41:35.716Z,3.83
2023-04-27T11:46:38.949Z,3.83
2023-04-27T11:51:45.001Z,4.00
2023-04-27T11:56:47.674Z,4.10
2023-04-27T12:01:52.097Z,4.00
2023-04-27T12:06:56.078Z,3.40
2023-04-27T12:11:59.083Z,3.33
2023-04-27T12:17:02.059Z,3.40
2023-04-27T12:22:06.204Z,3.70
2023-04-27T12:27:09.204Z,3.78
2023-04-27T12:32:11.825Z,3.70
2023-04-27T12:37:15.799Z,3.33
2023-04-27T12:42:23.463Z,3.83
2023-04-27T12:47:46.028Z,3.45
2023-04-27T12:52:50.503Z,3.72
2023-04-27T12:57:53.251Z,3.47
2023-04-27T13:02:56.594Z,3.83
2023-04-27T13:08:00.924Z,3.95
2023-04-27T13:13:04.226Z,3.53
2023-04-27T13:18:07.150Z,3.63
2023-04-27T13:23:11.747Z,4.10
2023-04-27T13:28:14.459Z,4.22
2023-04-27T13:33:23.194Z,4.35
2023-04-27T13:38:27.754Z,4.47
2023-04-27T13:43:31.040Z,4.32
2023-04-27T13:48:33.686Z,3.97
2023-04-27T13:53:37.677Z,3.65
2023-04-27T13:58:41.535Z,4.00
2023-04-27T14:03:44.381Z,4.13
2023-04-27T14:08:48.461Z,4.88
2023-04-27T14:13:51.254Z,4.20
2023-04-27T14:18:54.086Z,4.80
2023-04-27T14:23:58.066Z,4.07
2023-04-27T14:29:00.771Z,4.03
2023-04-27T14:34:03.612Z,4.50
2023-04-27T14:39:09.357Z,4.20
2023-04-27T14:44:13.142Z,4.80
2023-04-27T14:49:16.081Z,4.70
2023-04-27T14:54:20.247Z,4.38
2023-04-27T14:59:23.247Z,3.92
2023-04-27T15:04:26.658Z,4.47
2023-04-27T15:09:31.043Z,4.20
2023-04-27T15:14:34.114Z,4.50
2023-04-27T15:19:36.797Z,4.57
2023-04-27T15:24:40.781Z,4.63
2023-04-27T15:29:43.632Z,4.03
2023-04-27T15:34:46.912Z,4.88
2023-04-27T15:39:52.300Z,4.07
2023-04-27T15:44:54.960Z,4.78
2023-04-27T15:49:58.354Z,4.47
2023-04-27T15:55:04.195Z,4.15
2023-04-27T16:00:12.431Z,5.65
2023-04-27T16:05:16.256Z,6.40
2023-04-27T16:10:20.290Z,4.82
2023-04-27T16:15:22.956Z,5.15
2023-04-27T16:20:28.858Z,5.22
2023-04-27T16:25:32.856Z,4.30
2023-04-27T16:30:35.604Z,4.60
2023-04-27T16:35:38.257Z,4.93
2023-04-27T16:40:42.251Z,4.78
2023-04-27T16:45:44.929Z,4.40
2023-04-27T16:50:47.973Z,4.55
2023-04-27T16:55:52.002Z,3.92
2023-04-27T17:00:54.814Z,4.40
2023-04-27T17:05:57.568Z,4.47
2023-04-27T17:11:01.542Z,4.05
2023-04-27T17:16:05.441Z,4.20
2023-04-27T17:21:08.148Z,4.05
2023-04-27T17:26:12.341Z,4.20
2023-04-27T17:31:15.174Z,4.53
2023-04-27T17:36:17.913Z,4.82
2023-04-27T17:41:22.244Z,3.83
2023-04-27T17:46:25.284Z,4.00
2023-04-27T17:51:27.975Z,4.60
2023-04-27T17:56:32.439Z,4.18
2023-04-27T18:01:35.262Z,4.60
2023-04-27T18:06:37.980Z,4.25
2023-04-27T18:11:42.153Z,4.03
2023-04-27T18:16:45.234Z,4.15
2023-04-27T18:21:53.280Z,3.88
2023-04-27T18:26:57.856Z,4.38
2023-04-27T18:32:05.422Z,4.63
2023-04-27T18:37:08.202Z,4.97
2023-04-27T18:42:12.461Z,5.00
2023-04-27T18:47:15.528Z,4.40
2023-04-27T18:52:18.204Z,4.50
2023-04-27T18:57:22.204Z,4.90
2023-04-27T19:02:25.871Z,4.63
2023-04-27T19:07:29.172Z,5.13
2023-04-27T19:12:33.299Z,4.67
2023-04-27T19:17:36.029Z,4.70
2023-04-27T19:22:38.978Z,5.00
2023-04-27T19:27:42.987Z,5.07
2023-04-27T19:32:45.783Z,4.17
2023-04-27T19:37:49.250Z,4.70
2023-04-27T19:42:53.248Z,4.57
2023-04-27T19:47:56.478Z,5.30
2023-04-27T19:52:59.170Z,5.20
2023-04-27T19:58:03.156Z,5.50
2023-04-27T20:03:06.596Z,5.17
2023-04-27T20:08:09.374Z,4.70
2023-04-27T20:13:13.493Z,5.00
2023-04-27T20:18:16.334Z,5.63
2023-04-27T20:23:19.246Z,6.60
2023-04-27T20:28:23.229Z,6.00
2023-04-27T20:33:26.015Z,6.13
2023-04-27T20:38:28.678Z,6.73
2023-04-27T20:43:32.732Z,7.00
2023-04-27T20:48:35.495Z,7.70
2023-04-27T20:53:38.316Z,7.93
2023-04-27T20:58:42.264Z,8.80
2023-04-27T21:03:46.570Z,8.63
2023-04-27T21:08:49.443Z,7.83
2023-04-27T21:13:53.679Z,7.83
2023-04-27T21:18:56.369Z,7.97
2023-04-27T21:24:07.308Z,8.87
2023-04-27T21:29:12.341Z,9.90
2023-04-27T21:34:15.427Z,9.33
2023-04-27T21:39:18.235Z,9.50
2023-04-27T21:44:22.233Z,9.73
2023-04-27T21:49:24.918Z,8.23
2023-04-27T21:54:27.620Z,9.70
2023-04-27T21:59:31.687Z,9.90
2023-04-27T22:04:35.835Z,8.63
2023-04-27T22:09:38.896Z,9.90
2023-04-27T22:14:43.065Z,9.10
2023-04-27T22:19:45.729Z,10.03
2023-04-27T22:24:48.599Z,9.00
2023-04-27T22:29:52.676Z,8.87
2023-04-27T22:34:55.558Z,8.87
2023-04-27T22:39:58.467Z,8.50
2023-04-27T22:45:02.516Z,8.47
2023-04-27T22:50:06.066Z,8.00
2023-04-27T22:55:09.671Z,8.50
2023-04-27T23:00:15.269Z,8.07
2023-04-27T23:05:18.061Z,8.67
2023-04-27T23:10:20.770Z,8.23
2023-04-27T23:15:24.878Z,8.03
2023-04-27T23:20:29.067Z,7.47
2023-04-27T23:25:33.209Z,7.90
2023-04-27T23:30:37.280Z,7.23
2023-04-27T23:35:39.970Z,7.47
2023-04-27T23:40:42.650Z,8.33
2023-04-27T23:45:51.617Z,8.00
2023-04-27T23:51:00.408Z,8.50
2023-04-27T23:56:03.090Z,8.53
